createdAt,value
2019-03-22T00:00:42.179Z,76.87
2019-03-22T00:03:13.121Z,77.15
2019-03-22T00:05:44.025Z,77.30
2019-03-22T00:08:15.126Z,77.07
2019-03-22T00:10:46.173Z,77.43
2019-03-22T00:13:17.844Z,77.31
2019-03-22T00:15:49.257Z,77.44
2019-03-22T00:18:20.324Z,77.77
2019-03-22T00:20:51.412Z,77.95
2019-03-22T00:23:22.614Z,77.87
2019-03-22T00:25:53.631Z,77.60
2019-03-22T00:28:24.690Z,77.72
2019-03-22T00:30:55.689Z,77.87
2019-03-22T00:33:27.061Z,77.95
2019-03-22T00:35:58.162Z,77.80
2019-03-22T00:38:29.657Z,77.84
2019-03-22T00:41:00.779Z,77.87
2019-03-22T00:43:31.848Z,77.82
2019-03-22T00:46:02.960Z,77.44
2019-03-22T00:48:33.826Z,78.88
2019-03-22T00:51:13.649Z,78.78
2019-03-22T00:53:44.542Z,79.46
2019-03-22T00:56:15.874Z,80.15
2019-03-22T00:58:46.922Z,80.32
2019-03-22T01:01:20.402Z,79.40
2019-03-22T01:03:51.341Z,78.94
2019-03-22T01:06:33.643Z,78.71
2019-03-22T01:09:06.127Z,78.71
2019-03-22T01:11:37.121Z,78.63
2019-03-22T01:14:08.661Z,78.80
2019-03-22T01:16:40.859Z,79.23
2019-03-22T01:19:12.081Z,78.96
2019-03-22T01:21:43.584Z,79.21
2019-03-22T01:24:15.334Z,78.89
2019-03-22T01:26:46.740Z,79.12
2019-03-22T01:29:17.731Z,79.22
2019-03-22T01:31:48.974Z,79.18
2019-03-22T01:34:19.951Z,79.04
2019-03-22T01:36:52.704Z,78.96
2019-03-22T01:39:24.236Z,78.91
2019-03-22T01:41:55.682Z,79.02
2019-03-22T01:44:26.587Z,78.93
2019-03-22T01:46:57.827Z,79.04
2019-03-22T01:49:28.779Z,79.20
2019-03-22T01:52:00.294Z,79.32
2019-03-22T01:54:31.364Z,79.00
2019-03-22T01:57:02.376Z,78.80
2019-03-22T01:59:33.383Z,79.27
2019-03-22T02:02:33.617Z,79.48
2019-03-22T02:05:20.441Z,79.20
2019-03-22T02:07:51.983Z,79.13
2019-03-22T02:10:39.825Z,80.00
2019-03-22T02:13:11.714Z,80.49
2019-03-22T02:15:43.011Z,80.15
2019-03-22T02:18:14.140Z,79.85
2019-03-22T02:20:45.767Z,79.18
2019-03-22T02:23:16.693Z,80.12
2019-03-22T02:25:47.931Z,79.81
2019-03-22T02:28:20.990Z,79.65
2019-03-22T02:30:52.068Z,80.07
2019-03-22T02:33:23.859Z,79.84
2019-03-22T02:35:54.932Z,79.80
2019-03-22T02:38:26.073Z,79.60
2019-03-22T02:40:57.068Z,79.57
2019-03-22T02:43:28.913Z,79.52
2019-03-22T02:46:00.143Z,79.95
2019-03-22T02:48:31.110Z,80.17
2019-03-22T02:51:02.194Z,80.05
2019-03-22T02:53:33.467Z,80.04
2019-03-22T02:56:05.598Z,80.13
2019-03-22T02:58:37.013Z,80.19
2019-03-22T03:01:07.980Z,80.11
2019-03-22T03:03:38.944Z,80.22
2019-03-22T03:06:11.299Z,80.37
2019-03-22T03:08:42.268Z,80.49
2019-03-22T03:11:13.687Z,80.79
2019-03-22T03:13:44.727Z,80.75
2019-03-22T03:16:15.693Z,80.85
2019-03-22T03:18:46.978Z,80.97
2019-03-22T03:21:19.959Z,80.94
2019-03-22T03:23:50.990Z,80.81
2019-03-22T03:26:22.299Z,80.84
2019-03-22T03:28:54.313Z,80.79
2019-03-22T03:31:26.079Z,80.92
2019-03-22T03:33:57.288Z,80.92
2019-03-22T03:36:29.387Z,80.98
2019-03-22T03:39:00.270Z,80.89
2019-03-22T03:41:32.434Z,80.94
2019-03-22T03:44:03.424Z,81.11
2019-03-22T03:46:34.197Z,81.13
2019-03-22T03:49:05.176Z,81.09
2019-03-22T03:51:36.052Z,81.37
2019-03-22T03:54:07.111Z,81.43
2019-03-22T03:56:37.950Z,81.17
2019-03-22T03:59:08.839Z,81.12
2019-03-22T04:01:40.329Z,80.95
2019-03-22T04:04:11.203Z,80.83
2019-03-22T04:06:42.401Z,80.91
2019-03-22T04:09:13.312Z,80.89
2019-03-22T04:11:44.131Z,80.85
2019-03-22T04:14:15.127Z,81.08
2019-03-22T04:16:45.980Z,81.30
2019-03-22T04:19:17.292Z,81.72
2019-03-22T04:21:48.317Z,81.89
2019-03-22T04:24:19.754Z,81.74
2019-03-22T04:26:50.600Z,81.96
2019-03-22T04:29:21.582Z,82.12
2019-03-22T04:31:52.473Z,82.47
2019-03-22T04:34:23.409Z,82.75
2019-03-22T04:36:54.900Z,83.10
2019-03-22T04:39:26.549Z,83.06
2019-03-22T04:41:57.495Z,83.20
2019-03-22T04:44:28.317Z,83.22
2019-03-22T04:46:59.960Z,83.35
2019-03-22T04:49:33.040Z,83.35
2019-03-22T04:52:06.714Z,83.23
2019-03-22T04:54:39.877Z,83.12
2019-03-22T04:57:13.373Z,82.95
2019-03-22T04:59:50.754Z,82.82
2019-03-22T05:02:22.472Z,82.83
2019-03-22T05:04:54.510Z,82.85
2019-03-22T05:07:25.517Z,82.69
2019-03-22T05:09:57.352Z,82.67
2019-03-22T05:12:28.292Z,82.68
2019-03-22T05:14:59.562Z,82.54
2019-03-22T05:17:32.748Z,82.52
2019-03-22T05:20:05.083Z,82.61
2019-03-22T05:22:38.745Z,82.75
2019-03-22T05:25:12.045Z,82.70
2019-03-22T05:27:44.737Z,82.67
2019-03-22T05:30:42.961Z,82.72
2019-03-22T05:33:14.299Z,82.42
2019-03-22T05:35:45.474Z,80.59
2019-03-22T05:38:16.427Z,79.55
2019-03-22T05:40:47.270Z,79.72
2019-03-22T05:43:18.655Z,78.39
2019-03-22T05:45:49.539Z,75.96
2019-03-22T05:48:20.990Z,75.40
2019-03-22T05:50:52.768Z,74.88
2019-03-22T05:53:39.323Z,73.95
2019-03-22T05:56:10.251Z,73.97
2019-03-22T05:58:40.978Z,71.30
2019-03-22T06:01:12.524Z,69.61
2019-03-22T06:03:51.475Z,68.58
2019-03-22T06:06:24.855Z,66.73
2019-03-22T06:08:55.687Z,64.71
2019-03-22T06:11:26.617Z,62.29
2019-03-22T06:13:57.836Z,61.54
2019-03-22T06:16:29.924Z,59.76
2019-03-22T06:19:01.137Z,58.59
2019-03-22T06:21:32.562Z,58.21
2019-03-22T06:24:04.951Z,58.77
2019-03-22T06:26:36.128Z,56.71
2019-03-22T06:29:07.068Z,55.16
2019-03-22T06:31:38.793Z,54.78
2019-03-22T06:34:09.685Z,55.74
2019-03-22T06:36:40.734Z,56.33
2019-03-22T06:39:15.800Z,55.30
2019-03-22T06:41:46.692Z,54.93
2019-03-22T06:44:21.344Z,54.07
2019-03-22T06:46:57.524Z,52.18
2019-03-22T06:49:29.160Z,53.98
2019-03-22T06:52:01.977Z,54.66
2019-03-22T06:54:33.109Z,55.51
2019-03-22T06:57:04.364Z,55.71
2019-03-22T06:59:35.611Z,54.79
2019-03-22T07:02:07.817Z,54.19
2019-03-22T07:04:39.218Z,51.44
2019-03-22T07:07:10.167Z,50.67
2019-03-22T07:09:41.456Z,52.27
2019-03-22T07:12:12.557Z,51.45
2019-03-22T07:14:43.851Z,50.62
2019-03-22T07:17:15.269Z,51.03
2019-03-22T07:19:48.589Z,51.01
2019-03-22T07:22:19.448Z,49.88
2019-03-22T07:24:50.791Z,50.44
2019-03-22T07:27:21.624Z,51.65
2019-03-22T07:29:52.486Z,51.33
2019-03-22T07:32:23.278Z,50.31
2019-03-22T07:34:55.150Z,50.40
2019-03-22T07:37:26.057Z,50.60
2019-03-22T07:39:57.488Z,48.87
2019-03-22T07:42:28.471Z,47.85
2019-03-22T07:44:59.418Z,47.61
2019-03-22T07:47:31.046Z,47.17
2019-03-22T07:50:02.289Z,46.27
2019-03-22T07:52:36.442Z,46.01
2019-03-22T07:55:12.817Z,45.61
2019-03-22T07:57:44.014Z,45.54
2019-03-22T08:00:29.862Z,45.65
2019-03-22T08:02:51.886Z,45.42
2019-03-22T08:05:24.148Z,46.36
2019-03-22T08:07:56.385Z,46.18
2019-03-22T08:10:27.388Z,45.88
2019-03-22T08:13:00.629Z,45.43
2019-03-22T08:15:38.686Z,45.85
2019-03-22T08:18:10.774Z,45.23
2019-03-22T08:20:44.116Z,44.41
2019-03-22T08:23:23.615Z,43.30
2019-03-22T08:25:55.027Z,43.41
2019-03-22T08:28:30.028Z,42.35
2019-03-22T08:31:01.502Z,41.20
2019-03-22T08:33:34.065Z,40.37
2019-03-22T08:36:05.656Z,40.52
2019-03-22T08:38:36.905Z,37.65
2019-03-22T08:41:09.242Z,37.25
2019-03-22T08:43:41.022Z,37.47
2019-03-22T08:46:13.403Z,40.05
2019-03-22T08:48:45.939Z,37.66
2019-03-22T08:51:17.820Z,35.08
2019-03-22T08:53:55.468Z,34.68
2019-03-22T08:56:26.354Z,33.34
2019-03-22T08:58:58.278Z,34.86
2019-03-22T09:01:31.207Z,35.19
2019-03-22T09:04:03.431Z,34.29
2019-03-22T09:06:35.466Z,33.75
2019-03-22T09:09:09.084Z,33.84
2019-03-22T09:11:41.682Z,33.79
2019-03-22T09:14:13.423Z,33.17
2019-03-22T09:16:45.056Z,32.47
2019-03-22T09:19:18.023Z,32.84
2019-03-22T09:21:50.404Z,33.29
2019-03-22T09:24:21.555Z,33.47
2019-03-22T09:26:53.633Z,33.18
2019-03-22T09:29:33.402Z,32.45
2019-03-22T09:32:06.038Z,31.49
2019-03-22T09:34:37.609Z,31.04
2019-03-22T09:37:09.373Z,31.37
2019-03-22T09:39:40.763Z,31.98
2019-03-22T09:42:13.315Z,31.77
2019-03-22T09:44:45.714Z,30.98
2019-03-22T09:47:17.636Z,30.31
2019-03-22T09:49:51.367Z,31.52
2019-03-22T09:52:24.135Z,32.01
2019-03-22T09:54:56.109Z,30.97
2019-03-22T09:57:29.334Z,31.29
2019-03-22T10:00:02.905Z,32.63
2019-03-22T10:02:34.510Z,32.83
2019-03-22T10:05:06.967Z,31.86
2019-03-22T10:07:38.879Z,32.45
2019-03-22T10:10:22.618Z,32.08
2019-03-22T10:12:58.727Z,34.24
2019-03-22T10:15:34.399Z,33.58
2019-03-22T10:18:07.670Z,32.58
2019-03-22T10:20:40.158Z,31.08
2019-03-22T10:23:11.270Z,32.01
2019-03-22T10:25:43.496Z,31.12
2019-03-22T10:28:17.857Z,32.82
2019-03-22T10:30:51.073Z,32.49
2019-03-22T10:33:24.633Z,33.69
2019-03-22T10:36:00.050Z,33.25
2019-03-22T10:38:32.377Z,34.39
2019-03-22T10:41:07.240Z,33.19
2019-03-22T10:43:41.539Z,33.93
2019-03-22T10:46:13.378Z,34.04
2019-03-22T10:48:49.586Z,34.60
2019-03-22T10:51:25.106Z,33.94
2019-03-22T10:53:58.313Z,33.57
2019-03-22T10:56:31.279Z,34.43
2019-03-22T10:59:06.722Z,34.19
2019-03-22T11:01:51.987Z,33.10
2019-03-22T11:04:13.021Z,32.83
2019-03-22T11:06:46.009Z,32.80
2019-03-22T11:09:26.585Z,34.63
2019-03-22T11:11:58.979Z,34.93
2019-03-22T11:14:32.548Z,33.64
2019-03-22T11:17:04.882Z,33.99
2019-03-22T11:19:38.411Z,34.45
2019-03-22T11:22:11.269Z,34.80
2019-03-22T11:24:43.776Z,35.04
2019-03-22T11:27:16.757Z,33.70
2019-03-22T11:29:49.223Z,33.62
2019-03-22T11:32:21.361Z,34.14
2019-03-22T11:34:53.408Z,33.91
2019-03-22T11:37:25.902Z,33.74
2019-03-22T11:39:58.105Z,33.51
2019-03-22T11:42:32.977Z,34.07
2019-03-22T11:45:04.759Z,34.61
2019-03-22T11:47:36.162Z,33.79
2019-03-22T11:50:09.499Z,33.72
2019-03-22T11:52:43.157Z,33.89
2019-03-22T11:55:14.749Z,33.96
2019-03-22T11:57:47.981Z,33.61
2019-03-22T12:00:23.816Z,34.00
2019-03-22T12:02:58.609Z,33.40
2019-03-22T12:05:40.068Z,33.14
2019-03-22T12:08:04.357Z,33.41
2019-03-22T12:10:37.767Z,33.20
2019-03-22T12:13:08.941Z,33.52
2019-03-22T12:15:40.747Z,33.19
2019-03-22T12:18:11.752Z,33.15
2019-03-22T12:20:44.049Z,32.71
2019-03-22T12:23:16.067Z,33.85
2019-03-22T12:25:48.655Z,32.94
2019-03-22T12:28:19.775Z,32.61
2019-03-22T12:30:51.219Z,33.53
2019-03-22T12:33:22.052Z,33.60
2019-03-22T12:35:53.246Z,32.99
2019-03-22T12:38:24.417Z,34.07
2019-03-22T12:40:55.776Z,33.94
2019-03-22T12:43:27.012Z,34.27
2019-03-22T12:45:58.227Z,35.21
2019-03-22T12:48:30.506Z,35.55
2019-03-22T12:51:05.214Z,35.36
2019-03-22T12:53:38.486Z,35.76
2019-03-22T12:56:12.818Z,34.43
2019-03-22T12:58:46.750Z,35.43
2019-03-22T13:01:22.895Z,36.16
2019-03-22T13:03:57.384Z,35.25
2019-03-22T13:06:28.655Z,35.57
2019-03-22T13:09:01.081Z,36.29
2019-03-22T13:11:32.712Z,36.58
2019-03-22T13:14:04.470Z,36.00
2019-03-22T13:16:35.479Z,35.57
2019-03-22T13:19:09.877Z,36.61
2019-03-22T13:21:41.283Z,37.07
2019-03-22T13:24:12.840Z,36.83
2019-03-22T13:26:44.830Z,37.18
2019-03-22T13:29:17.759Z,37.59
2019-03-22T13:31:51.351Z,37.47
2019-03-22T13:34:23.242Z,37.23
2019-03-22T13:36:56.912Z,36.80
2019-03-22T13:39:29.454Z,37.13
2019-03-22T13:42:03.691Z,36.64
2019-03-22T13:44:36.106Z,36.20
2019-03-22T13:47:09.740Z,35.92
2019-03-22T13:49:40.793Z,37.00
2019-03-22T13:52:14.256Z,37.44
2019-03-22T13:54:45.916Z,37.45
2019-03-22T13:57:16.812Z,37.05
2019-03-22T13:59:48.512Z,37.11
2019-03-22T14:02:19.622Z,36.84
2019-03-22T14:04:51.140Z,37.35
2019-03-22T14:07:22.701Z,37.28
2019-03-22T14:09:53.744Z,37.77
2019-03-22T14:12:25.571Z,37.12
2019-03-22T14:14:57.489Z,36.59
2019-03-22T14:17:29.055Z,35.46
2019-03-22T14:20:10.452Z,37.10
2019-03-22T14:22:34.934Z,37.42
2019-03-22T14:25:06.782Z,38.39
2019-03-22T14:27:38.828Z,36.66
2019-03-22T14:30:10.649Z,37.06
2019-03-22T14:32:42.632Z,37.15
2019-03-22T14:35:16.328Z,37.61
2019-03-22T14:37:51.484Z,38.60
2019-03-22T14:40:24.254Z,38.33
2019-03-22T14:42:59.307Z,37.70
2019-03-22T14:45:36.004Z,37.23
2019-03-22T14:48:08.283Z,37.99
2019-03-22T14:50:39.479Z,37.30
2019-03-22T14:53:13.174Z,37.53
2019-03-22T14:55:45.996Z,37.22
2019-03-22T14:58:19.889Z,37.77
2019-03-22T15:00:52.963Z,37.53
2019-03-22T15:03:27.583Z,38.69
2019-03-22T15:05:59.697Z,38.70
2019-03-22T15:08:34.490Z,38.86
2019-03-22T15:11:06.598Z,39.34
2019-03-22T15:14:03.060Z,39.46
2019-03-22T15:16:53.448Z,39.79
2019-03-22T15:19:54.525Z,39.96
2019-03-22T15:22:45.876Z,39.77
2019-03-22T15:25:33.730Z,40.65
2019-03-22T15:28:30.235Z,39.77
2019-03-22T15:31:20.029Z,40.51
2019-03-22T15:34:17.682Z,39.75
2019-03-22T15:37:06.893Z,39.98
2019-03-22T15:39:56.336Z,39.98
2019-03-22T15:42:29.701Z,40.46
2019-03-22T15:45:01.111Z,40.74
2019-03-22T15:47:32.353Z,40.58
2019-03-22T15:50:04.762Z,40.07
2019-03-22T15:52:38.220Z,40.45
2019-03-22T15:55:13.345Z,41.11
2019-03-22T15:57:45.792Z,41.13
2019-03-22T16:00:20.642Z,41.32
2019-03-22T16:02:53.310Z,41.83
2019-03-22T16:05:25.206Z,42.73
2019-03-22T16:07:56.919Z,43.22
2019-03-22T16:10:29.378Z,43.60
2019-03-22T16:13:00.940Z,44.05
2019-03-22T16:15:34.100Z,44.48
2019-03-22T16:18:05.804Z,45.03
2019-03-22T16:20:37.128Z,45.58
2019-03-22T16:23:08.132Z,45.97
2019-03-22T16:25:39.865Z,46.07
2019-03-22T16:28:12.384Z,46.82
2019-03-22T16:30:45.278Z,47.63
2019-03-22T16:33:16.322Z,47.86
2019-03-22T16:35:50.892Z,48.29
2019-03-22T16:38:22.127Z,48.44
2019-03-22T16:40:56.499Z,48.69
2019-03-22T16:43:30.275Z,48.80
2019-03-22T16:46:10.884Z,49.29
2019-03-22T16:48:47.421Z,49.36
2019-03-22T16:51:23.498Z,49.57
2019-03-22T16:53:55.210Z,49.97
2019-03-22T16:56:27.209Z,50.50
2019-03-22T16:58:59.090Z,50.33
2019-03-22T17:01:31.888Z,50.88
2019-03-22T17:04:04.611Z,50.98
2019-03-22T17:06:36.522Z,51.22
2019-03-22T17:09:09.888Z,51.76
2019-03-22T17:11:41.524Z,51.88
2019-03-22T17:14:13.965Z,52.22
2019-03-22T17:16:45.189Z,52.07
2019-03-22T17:19:19.946Z,52.52
2019-03-22T17:21:51.637Z,52.76
2019-03-22T17:24:24.874Z,53.07
2019-03-22T17:26:58.636Z,53.32
2019-03-22T17:29:30.324Z,53.69
2019-03-22T17:32:02.343Z,53.97
2019-03-22T17:34:35.766Z,54.24
2019-03-22T17:37:07.059Z,53.91
2019-03-22T17:39:38.806Z,53.94
2019-03-22T17:42:10.927Z,53.59
2019-03-22T17:44:42.081Z,54.06
2019-03-22T17:47:14.321Z,54.20
2019-03-22T17:49:48.402Z,54.15
2019-03-22T17:52:18.748Z,54.48
2019-03-22T17:54:50.177Z,54.87
2019-03-22T17:57:21.814Z,54.81
2019-03-22T17:59:54.484Z,54.82
2019-03-22T18:02:27.314Z,54.90
2019-03-22T18:04:59.266Z,55.18
2019-03-22T18:07:32.220Z,55.24
2019-03-22T18:10:05.245Z,55.61
2019-03-22T18:12:39.004Z,56.00
2019-03-22T18:15:14.009Z,56.53
2019-03-22T18:17:48.011Z,56.75
2019-03-22T18:20:20.055Z,57.10
2019-03-22T18:22:52.135Z,57.62
2019-03-22T18:25:27.269Z,58.00
2019-03-22T18:28:01.296Z,58.37
2019-03-22T18:30:37.684Z,58.62
2019-03-22T18:33:12.974Z,59.11
2019-03-22T18:35:45.467Z,59.48
2019-03-22T18:38:18.039Z,59.83
2019-03-22T18:40:49.658Z,60.15
2019-03-22T18:43:21.128Z,60.51
2019-03-22T18:45:54.688Z,60.79
2019-03-22T18:48:27.136Z,60.95
2019-03-22T18:50:59.957Z,61.24
2019-03-22T18:53:33.885Z,61.52
2019-03-22T18:56:05.347Z,61.42
2019-03-22T18:58:36.643Z,61.48
2019-03-22T19:01:08.192Z,61.65
2019-03-22T19:03:41.221Z,61.87
2019-03-22T19:06:15.330Z,62.00
2019-03-22T19:08:46.758Z,61.98
2019-03-22T19:11:19.199Z,62.21
2019-03-22T19:13:50.846Z,62.45
2019-03-22T19:16:22.023Z,62.73
2019-03-22T19:18:55.960Z,62.85
2019-03-22T19:21:31.333Z,62.99
2019-03-22T19:24:03.805Z,62.98
2019-03-22T19:26:37.530Z,62.75
2019-03-22T19:29:11.186Z,63.00
2019-03-22T19:31:46.502Z,63.05
2019-03-22T19:34:19.030Z,63.07
2019-03-22T19:36:56.931Z,63.42
2019-03-22T19:39:34.780Z,63.37
2019-03-22T19:42:05.947Z,63.55
2019-03-22T19:44:39.416Z,63.84
2019-03-22T19:47:12.272Z,64.13
2019-03-22T19:49:43.556Z,64.27
2019-03-22T19:52:16.384Z,64.39
2019-03-22T19:54:49.253Z,64.58
2019-03-22T19:57:22.267Z,64.88
2019-03-22T19:59:55.042Z,65.00
2019-03-22T20:02:26.960Z,65.22
2019-03-22T20:05:04.687Z,65.40
2019-03-22T20:07:32.091Z,65.49
2019-03-22T20:10:07.064Z,65.66
2019-03-22T20:12:45.893Z,65.87
2019-03-22T20:15:19.257Z,65.97
2019-03-22T20:17:59.395Z,66.31
2019-03-22T20:20:29.701Z,66.27
2019-03-22T20:23:04.415Z,66.57
2019-03-22T20:25:38.058Z,66.83
2019-03-22T20:28:09.140Z,67.04
2019-03-22T20:30:43.973Z,67.26
2019-03-22T20:33:15.990Z,67.39
2019-03-22T20:35:47.457Z,67.80
2019-03-22T20:38:19.528Z,68.21
2019-03-22T20:40:53.967Z,68.33
2019-03-22T20:43:25.215Z,68.70
2019-03-22T20:45:57.482Z,68.85
2019-03-22T20:48:28.779Z,68.88
2019-03-22T20:51:00.992Z,69.21
2019-03-22T20:53:35.173Z,69.39
2019-03-22T20:56:06.916Z,69.67
2019-03-22T20:58:39.030Z,69.79
2019-03-22T21:01:11.274Z,70.10
2019-03-22T21:03:48.252Z,70.23
2019-03-22T21:06:22.095Z,70.42
2019-03-22T21:08:53.639Z,70.52
2019-03-22T21:11:25.554Z,70.79
2019-03-22T21:13:57.549Z,71.00
2019-03-22T21:16:31.259Z,71.05
2019-03-22T21:19:04.997Z,71.18
2019-03-22T21:21:41.468Z,71.35
2019-03-22T21:24:15.218Z,71.54
2019-03-22T21:26:50.968Z,71.75
2019-03-22T21:29:22.931Z,72.00
2019-03-22T21:31:55.392Z,72.06
2019-03-22T21:34:31.020Z,72.31
2019-03-22T21:37:04.242Z,72.58
2019-03-22T21:39:42.601Z,72.85
2019-03-22T21:42:16.181Z,73.03
2019-03-22T21:44:49.394Z,73.35
2019-03-22T21:47:22.428Z,73.62
2019-03-22T21:49:54.816Z,73.74
2019-03-22T21:52:26.890Z,74.03
2019-03-22T21:54:58.209Z,74.23
2019-03-22T21:57:32.411Z,74.38
2019-03-22T22:00:05.041Z,74.64
2019-03-22T22:02:38.633Z,74.83
2019-03-22T22:05:10.019Z,74.97
2019-03-22T22:07:41.612Z,75.17
2019-03-22T22:10:13.481Z,75.48
2019-03-22T22:12:45.909Z,75.62
2019-03-22T22:15:17.592Z,75.69
2019-03-22T22:17:53.342Z,76.00
2019-03-22T22:20:29.173Z,76.25
2019-03-22T22:22:59.646Z,76.44
2019-03-22T22:25:32.806Z,76.61
2019-03-22T22:28:04.777Z,76.74
2019-03-22T22:30:39.761Z,76.86
2019-03-22T22:33:13.527Z,76.86
2019-03-22T22:35:46.918Z,76.97
2019-03-22T22:38:18.642Z,77.27
2019-03-22T22:40:49.787Z,77.26
2019-03-22T22:43:21.094Z,77.46
2019-03-22T22:45:53.411Z,77.62
2019-03-22T22:48:30.469Z,77.76
2019-03-22T22:51:02.552Z,77.91
2019-03-22T22:53:35.002Z,78.07
2019-03-22T22:56:05.995Z,78.15
2019-03-22T22:58:38.575Z,78.34
2019-03-22T23:01:11.026Z,78.62
2019-03-22T23:03:43.722Z,78.85
2019-03-22T23:06:16.019Z,78.75
2019-03-22T23:08:47.289Z,78.88
2019-03-22T23:11:18.264Z,79.07
2019-03-22T23:13:50.285Z,79.25
2019-03-22T23:16:21.843Z,79.26
2019-03-22T23:18:53.501Z,79.48
2019-03-22T23:21:26.586Z,79.45
2019-03-22T23:23:58.393Z,79.68
2019-03-22T23:26:29.885Z,79.88
2019-03-22T23:29:01.987Z,80.13
2019-03-22T23:31:34.133Z,80.22
2019-03-22T23:34:06.532Z,80.27
2019-03-22T23:36:37.806Z,80.38
2019-03-22T23:39:10.988Z,80.55
2019-03-22T23:41:42.394Z,80.61
2019-03-22T23:44:14.478Z,80.55
2019-03-22T23:46:46.380Z,80.68
2019-03-22T23:49:18.089Z,80.57
2019-03-22T23:51:49.415Z,80.40
2019-03-22T23:54:22.996Z,80.45
2019-03-22T23:56:54.470Z,80.35
2019-03-22T23:59:26.065Z,80.42
